createdAt,value
2019-06-08T00:00:16.784Z,1009.09
2019-06-08T00:01:16.451Z,1009.06
2019-06-08T00:02:16.649Z,1009.08
2019-06-08T00:03:16.669Z,1009.04
2019-06-08T00:04:16.545Z,1009.11
2019-06-08T00:05:16.866Z,1009.05
2019-06-08T00:06:16.763Z,1009.04
2019-06-08T00:07:16.605Z,1009.01
2019-06-08T00:08:16.842Z,1008.96
2019-06-08T00:09:16.767Z,1008.93
2019-06-08T00:10:16.930Z,1008.97
2019-06-08T00:11:16.878Z,1008.99
2019-06-08T00:12:16.928Z,1008.97
2019-06-08T00:13:17.043Z,1008.98
2019-06-08T00:14:17.363Z,1008.94
2019-06-08T00:15:16.232Z,1008.99
2019-06-08T00:16:17.407Z,1008.98
2019-06-08T00:17:31.349Z,1009.05
2019-06-08T00:18:17.408Z,1008.98
2019-06-08T00:19:17.321Z,1009.04
2019-06-08T00:20:17.581Z,1009.03
2019-06-08T00:21:16.136Z,1009.07
2019-06-08T00:22:16.116Z,1009.09
2019-06-08T00:23:16.132Z,1009.05
2019-06-08T00:24:16.091Z,1009.06
2019-06-08T00:25:16.096Z,1009.09
2019-06-08T00:26:16.067Z,1009.18
2019-06-08T00:27:16.071Z,1009.19
2019-06-08T00:28:16.182Z,1009.15
2019-06-08T00:29:16.317Z,1009.19
2019-06-08T00:30:16.023Z,1009.20
2019-06-08T00:31:17.344Z,1009.06
2019-06-08T00:32:16.193Z,1009.01
2019-06-08T00:33:17.032Z,1008.99
2019-06-08T00:34:16.559Z,1009.11
2019-06-08T00:35:16.574Z,1009.15
2019-06-08T00:36:16.740Z,1009.31
2019-06-08T00:37:16.718Z,1009.26
2019-06-08T00:38:16.911Z,1009.23
2019-06-08T00:39:16.751Z,1009.19
2019-06-08T00:40:16.835Z,1009.18
2019-06-08T00:41:17.047Z,1009.28
2019-06-08T00:42:17.029Z,1009.33
2019-06-08T00:43:17.071Z,1009.41
2019-06-08T00:44:17.076Z,1009.40
2019-06-08T00:45:17.240Z,1009.32
2019-06-08T00:46:17.163Z,1009.35
2019-06-08T00:47:16.360Z,1009.42
2019-06-08T00:48:16.714Z,1009.39
2019-06-08T00:49:16.443Z,1009.46
2019-06-08T00:50:16.714Z,1009.48
2019-06-08T00:51:16.770Z,1009.54
2019-06-08T00:52:16.865Z,1009.60
2019-06-08T00:53:16.992Z,1009.62
2019-06-08T00:54:15.757Z,1009.66
2019-06-08T00:55:15.750Z,1009.61
2019-06-08T00:56:15.746Z,1009.66
2019-06-08T00:57:15.723Z,1009.68
2019-06-08T00:58:15.730Z,1009.75
2019-06-08T00:59:15.699Z,1009.70
2019-06-08T01:00:15.686Z,1009.71
2019-06-08T01:01:15.677Z,1009.69
2019-06-08T01:02:15.664Z,1009.65
2019-06-08T01:03:15.664Z,1009.62
2019-06-08T01:04:15.645Z,1009.67
2019-06-08T01:05:15.630Z,1009.68
2019-06-08T01:06:15.619Z,1009.69
2019-06-08T01:07:15.617Z,1009.70
2019-06-08T01:08:15.616Z,1009.75
2019-06-08T01:09:15.602Z,1009.78
2019-06-08T01:10:15.576Z,1009.80
2019-06-08T01:11:15.581Z,1009.81
2019-06-08T01:12:15.553Z,1009.87
2019-06-08T01:13:15.554Z,1009.83
2019-06-08T01:14:15.544Z,1009.88
2019-06-08T01:15:15.529Z,1009.90
2019-06-08T01:16:15.510Z,1009.89
2019-06-08T01:17:15.508Z,1009.92
2019-06-08T01:18:15.485Z,1009.86
2019-06-08T01:19:15.494Z,1009.95
2019-06-08T01:20:15.461Z,1009.88
2019-06-08T01:21:15.454Z,1009.98
2019-06-08T01:22:15.442Z,1009.94
2019-06-08T01:23:15.434Z,1009.99
2019-06-08T01:24:15.430Z,1009.97
2019-06-08T01:25:15.409Z,1009.95
2019-06-08T01:26:15.405Z,1009.93
2019-06-08T01:27:15.399Z,1009.97
2019-06-08T01:28:15.395Z,1010.01
2019-06-08T01:29:15.374Z,1009.96
2019-06-08T01:30:15.356Z,1009.99
2019-06-08T01:31:15.340Z,1010.08
2019-06-08T01:32:15.344Z,1010.01
2019-06-08T01:33:15.314Z,1010.00
2019-06-08T01:34:15.319Z,1010.02
2019-06-08T01:35:15.291Z,1010.05
2019-06-08T01:36:15.286Z,1010.05
2019-06-08T01:37:15.270Z,1010.09
2019-06-08T01:38:15.259Z,1010.05
2019-06-08T01:39:15.253Z,1010.12
2019-06-08T01:40:15.253Z,1010.14
2019-06-08T01:41:15.231Z,1010.26
2019-06-08T01:42:15.213Z,1010.22
2019-06-08T01:43:15.205Z,1010.27
2019-06-08T01:44:15.194Z,1010.23
2019-06-08T01:45:15.197Z,1010.31
2019-06-08T01:46:15.181Z,1010.30
2019-06-08T01:47:15.164Z,1010.30
2019-06-08T01:48:19.980Z,1010.27
2019-06-08T01:49:16.143Z,1010.43
2019-06-08T01:50:15.147Z,1010.35
2019-06-08T01:51:15.119Z,1010.48
2019-06-08T01:52:15.111Z,1010.44
2019-06-08T01:53:15.111Z,1010.47
2019-06-08T01:54:15.086Z,1010.49
2019-06-08T01:55:15.094Z,1010.48
2019-06-08T01:56:15.067Z,1010.54
2019-06-08T01:57:15.051Z,1010.51
2019-06-08T01:58:15.039Z,1010.52
2019-06-08T01:59:15.030Z,1010.64
2019-06-08T02:00:36.950Z,1010.73
2019-06-08T02:01:16.013Z,1010.71
2019-06-08T02:02:15.006Z,1010.77
2019-06-08T02:03:15.025Z,1010.84
2019-06-08T02:04:14.971Z,1010.82
2019-06-08T02:05:14.964Z,1010.85
2019-06-08T02:06:14.961Z,1011.01
2019-06-08T02:07:14.944Z,1010.97
2019-06-08T02:08:14.927Z,1011.03
2019-06-08T02:09:14.922Z,1011.10
2019-06-08T02:10:14.909Z,1011.13
2019-06-08T02:11:14.913Z,1011.08
2019-06-08T02:12:14.884Z,1011.25
2019-06-08T02:13:14.872Z,1011.16
2019-06-08T02:14:14.877Z,1011.10
2019-06-08T02:15:14.851Z,1011.11
2019-06-08T02:16:14.863Z,1011.13
2019-06-08T02:17:14.831Z,1011.13
2019-06-08T02:18:14.818Z,1011.25
2019-06-08T02:19:14.811Z,1011.26
2019-06-08T02:20:14.796Z,1011.35
2019-06-08T02:21:14.798Z,1011.41
2019-06-08T02:22:14.773Z,1011.38
2019-06-08T02:23:14.777Z,1011.46
2019-06-08T02:24:14.757Z,1011.43
2019-06-08T02:25:14.736Z,1011.51
2019-06-08T02:26:14.749Z,1011.47
2019-06-08T02:27:14.713Z,1011.42
2019-06-08T02:28:14.706Z,1011.56
2019-06-08T02:29:14.690Z,1011.61
2019-06-08T02:30:14.691Z,1011.69
2019-06-08T02:31:14.683Z,1011.65
2019-06-08T02:32:14.672Z,1011.64
2019-06-08T02:33:14.652Z,1011.71
2019-06-08T02:34:14.643Z,1011.77
2019-06-08T02:35:14.623Z,1011.85
2019-06-08T02:36:14.635Z,1011.93
2019-06-08T02:37:14.606Z,1012.05
2019-06-08T02:38:14.592Z,1011.94
2019-06-08T02:39:14.580Z,1012.06
2019-06-08T02:40:14.574Z,1012.12
2019-06-08T02:41:14.572Z,1012.10
2019-06-08T02:42:14.547Z,1012.09
2019-06-08T02:43:14.540Z,1012.14
2019-06-08T02:44:14.533Z,1012.10
2019-06-08T02:45:14.513Z,1012.13
2019-06-08T02:46:14.517Z,1012.18
2019-06-08T02:47:16.423Z,1012.16
2019-06-08T02:48:14.499Z,1012.24
2019-06-08T02:49:14.469Z,1012.18
2019-06-08T02:50:14.462Z,1012.23
2019-06-08T02:51:14.446Z,1012.21
2019-06-08T02:52:14.441Z,1012.12
2019-06-08T02:53:14.431Z,1012.19
2019-06-08T02:54:14.410Z,1012.16
2019-06-08T02:55:14.404Z,1012.12
2019-06-08T02:56:14.420Z,1012.17
2019-06-08T02:57:14.389Z,1012.09
2019-06-08T02:58:14.380Z,1012.10
2019-06-08T02:59:14.366Z,1012.11
2019-06-08T03:00:14.382Z,1012.17
2019-06-08T03:01:14.345Z,1012.15
2019-06-08T03:02:14.324Z,1012.17
2019-06-08T03:03:14.328Z,1012.17
2019-06-08T03:04:14.316Z,1012.30
2019-06-08T03:05:14.294Z,1012.40
2019-06-08T03:06:14.283Z,1012.40
2019-06-08T03:07:14.270Z,1012.49
2019-06-08T03:08:14.274Z,1012.46
2019-06-08T03:09:14.246Z,1012.50
2019-06-08T03:10:14.249Z,1012.53
2019-06-08T03:11:14.225Z,1012.59
2019-06-08T03:12:14.223Z,1012.50
2019-06-08T03:13:14.214Z,1012.62
2019-06-08T03:14:14.190Z,1012.54
2019-06-08T03:15:14.183Z,1012.57
2019-06-08T03:16:14.184Z,1012.60
2019-06-08T03:17:14.162Z,1012.56
2019-06-08T03:18:14.160Z,1012.51
2019-06-08T03:19:21.630Z,1012.48
2019-06-08T03:20:15.123Z,1012.50
2019-06-08T03:21:14.110Z,1012.50
2019-06-08T03:22:14.107Z,1012.43
2019-06-08T03:23:14.103Z,1012.38
2019-06-08T03:24:14.083Z,1012.48
2019-06-08T03:25:14.074Z,1012.45
2019-06-08T03:26:14.061Z,1012.43
2019-06-08T03:27:14.041Z,1012.46
2019-06-08T03:28:14.059Z,1012.41
2019-06-08T03:29:14.031Z,1012.34
2019-06-08T03:30:18.478Z,1012.37
2019-06-08T03:31:15.015Z,1012.34
2019-06-08T03:32:14.002Z,1012.39
2019-06-08T03:33:13.992Z,1012.41
2019-06-08T03:34:13.970Z,1012.44
2019-06-08T03:35:14.011Z,1012.43
2019-06-08T03:36:13.947Z,1012.45
2019-06-08T03:37:13.936Z,1012.44
2019-06-08T03:38:13.937Z,1012.44
2019-06-08T03:39:13.920Z,1012.41
2019-06-08T03:40:13.903Z,1012.30
2019-06-08T03:41:13.890Z,1012.38
2019-06-08T03:42:13.882Z,1012.37
2019-06-08T03:43:13.891Z,1012.41
2019-06-08T03:44:13.864Z,1012.39
2019-06-08T03:45:13.850Z,1012.47
2019-06-08T03:46:13.843Z,1012.45
2019-06-08T03:47:13.819Z,1012.47
2019-06-08T03:48:13.830Z,1012.38
2019-06-08T03:49:13.805Z,1012.36
2019-06-08T03:50:13.786Z,1012.23
2019-06-08T03:51:13.785Z,1012.05
2019-06-08T03:52:13.786Z,1012.00
2019-06-08T03:53:13.774Z,1012.10
2019-06-08T03:54:13.740Z,1012.14
2019-06-08T03:55:13.730Z,1012.23
2019-06-08T03:56:13.723Z,1012.23
2019-06-08T03:57:13.709Z,1012.20
2019-06-08T03:58:13.720Z,1012.26
2019-06-08T03:59:13.690Z,1012.25
2019-06-08T04:00:13.998Z,1012.19
2019-06-08T04:01:13.671Z,1012.09
2019-06-08T04:02:13.657Z,1012.11
2019-06-08T04:03:13.659Z,1012.23
2019-06-08T04:04:13.635Z,1012.20
2019-06-08T04:05:13.634Z,1012.24
2019-06-08T04:06:13.611Z,1012.22
2019-06-08T04:07:13.600Z,1012.34
2019-06-08T04:08:13.607Z,1012.31
2019-06-08T04:09:13.579Z,1012.26
2019-06-08T04:10:13.577Z,1012.32
2019-06-08T04:11:13.563Z,1012.36
2019-06-08T04:12:13.549Z,1012.45
2019-06-08T04:13:13.546Z,1012.40
2019-06-08T04:14:13.522Z,1012.46
2019-06-08T04:15:13.521Z,1012.50
2019-06-08T04:16:13.507Z,1012.50
2019-06-08T04:17:13.492Z,1012.42
2019-06-08T04:18:13.498Z,1012.32
2019-06-08T04:19:13.470Z,1012.36
2019-06-08T04:20:13.459Z,1012.30
2019-06-08T04:21:13.446Z,1012.29
2019-06-08T04:22:13.447Z,1012.37
2019-06-08T04:23:13.467Z,1012.34
2019-06-08T04:24:13.414Z,1012.31
2019-06-08T04:25:13.403Z,1012.33
2019-06-08T04:26:13.390Z,1012.38
2019-06-08T04:27:13.387Z,1012.40
2019-06-08T04:28:13.411Z,1012.41
2019-06-08T04:29:13.362Z,1012.34
2019-06-08T04:30:13.352Z,1012.42
2019-06-08T04:31:13.349Z,1012.43
2019-06-08T04:32:13.329Z,1012.44
2019-06-08T04:33:13.340Z,1012.38
2019-06-08T04:34:13.304Z,1012.52
2019-06-08T04:35:13.302Z,1012.55
2019-06-08T04:36:13.286Z,1012.70
2019-06-08T04:37:15.878Z,1012.78
2019-06-08T04:38:13.291Z,1012.85
2019-06-08T04:39:13.252Z,1012.83
2019-06-08T04:40:13.253Z,1012.91
2019-06-08T04:41:13.247Z,1013.03
2019-06-08T04:42:13.224Z,1013.15
2019-06-08T04:43:13.251Z,1013.23
2019-06-08T04:44:13.197Z,1013.26
2019-06-08T04:45:13.186Z,1013.21
2019-06-08T04:46:13.288Z,1013.26
2019-06-08T04:47:13.172Z,1013.25
2019-06-08T04:48:13.170Z,1013.24
2019-06-08T04:49:13.167Z,1013.21
2019-06-08T04:50:22.666Z,1013.15
2019-06-08T04:51:14.127Z,1013.10
2019-06-08T04:52:13.136Z,1013.08
2019-06-08T04:53:13.117Z,1013.11
2019-06-08T04:54:14.600Z,1013.11
2019-06-08T04:55:13.080Z,1013.16
2019-06-08T04:56:13.071Z,1013.20
2019-06-08T04:57:13.055Z,1013.21
2019-06-08T04:58:13.078Z,1013.33
2019-06-08T04:59:13.045Z,1013.43
2019-06-08T05:00:13.668Z,1013.45
2019-06-08T05:01:13.014Z,1013.40
2019-06-08T05:02:13.001Z,1013.41
2019-06-08T05:03:13.014Z,1013.38
2019-06-08T05:04:12.980Z,1013.38
2019-06-08T05:05:12.973Z,1013.36
2019-06-08T05:06:12.957Z,1013.38
2019-06-08T05:07:12.950Z,1013.38
2019-06-08T05:08:12.954Z,1013.37
2019-06-08T05:09:12.926Z,1013.33
2019-06-08T05:10:12.913Z,1013.37
2019-06-08T05:11:12.909Z,1013.39
2019-06-08T05:12:12.897Z,1013.39
2019-06-08T05:13:12.896Z,1013.55
2019-06-08T05:14:12.868Z,1013.55
2019-06-08T05:15:12.853Z,1013.57
2019-06-08T05:16:12.854Z,1013.59
2019-06-08T05:17:12.833Z,1013.68
2019-06-08T05:18:12.844Z,1013.61
2019-06-08T05:19:12.816Z,1013.76
2019-06-08T05:20:12.802Z,1013.73
2019-06-08T05:21:12.812Z,1013.86
2019-06-08T05:22:12.789Z,1013.96
2019-06-08T05:23:12.795Z,1013.93
2019-06-08T05:24:12.766Z,1013.95
2019-06-08T05:25:12.750Z,1013.91
2019-06-08T05:26:12.736Z,1013.92
2019-06-08T05:27:12.730Z,1013.99
2019-06-08T05:28:12.728Z,1014.03
2019-06-08T05:29:12.712Z,1014.00
2019-06-08T05:30:12.697Z,1014.00
2019-06-08T05:31:12.682Z,1013.97
2019-06-08T05:32:12.670Z,1014.01
2019-06-08T05:33:12.680Z,1014.01
2019-06-08T05:34:12.648Z,1014.00
2019-06-08T05:35:12.644Z,1014.05
2019-06-08T05:36:12.636Z,1014.00
2019-06-08T05:37:12.626Z,1013.95
2019-06-08T05:38:12.618Z,1013.97
2019-06-08T05:39:12.596Z,1014.01
2019-06-08T05:40:12.598Z,1013.91
2019-06-08T05:41:12.575Z,1013.96
2019-06-08T05:42:12.562Z,1013.94
2019-06-08T05:43:12.567Z,1014.02
2019-06-08T05:44:12.537Z,1014.07
2019-06-08T05:45:12.537Z,1014.08
2019-06-08T05:46:12.522Z,1014.05
2019-06-08T05:47:12.506Z,1014.03
2019-06-08T05:48:12.513Z,1014.02
2019-06-08T05:49:12.492Z,1014.04
2019-06-08T05:50:12.478Z,1014.05
2019-06-08T05:51:12.678Z,1014.13
2019-06-08T05:52:12.456Z,1014.09
2019-06-08T05:53:12.463Z,1014.11
2019-06-08T05:54:12.433Z,1014.11
2019-06-08T05:55:12.423Z,1014.19
2019-06-08T05:56:12.408Z,1014.23
2019-06-08T05:57:12.412Z,1014.15
2019-06-08T05:58:12.426Z,1014.26
2019-06-08T05:59:12.372Z,1014.20
2019-06-08T06:00:12.367Z,1014.23
2019-06-08T06:01:12.353Z,1014.26
2019-06-08T06:02:12.341Z,1014.23
2019-06-08T06:03:12.353Z,1014.29
2019-06-08T06:04:12.329Z,1014.25
2019-06-08T06:05:12.319Z,1014.27
2019-06-08T06:06:12.295Z,1014.28
2019-06-08T06:07:12.281Z,1014.25
2019-06-08T06:08:18.771Z,1014.34
2019-06-08T06:09:13.261Z,1014.36
2019-06-08T06:10:12.253Z,1014.25
2019-06-08T06:11:12.242Z,1014.25
2019-06-08T06:12:12.229Z,1014.27
2019-06-08T06:13:12.234Z,1014.22
2019-06-08T06:14:12.211Z,1014.21
2019-06-08T06:15:12.197Z,1014.30
2019-06-08T06:16:12.193Z,1014.26
2019-06-08T06:17:12.173Z,1014.31
2019-06-08T06:18:12.174Z,1014.30
2019-06-08T06:19:12.153Z,1014.32
2019-06-08T06:20:12.140Z,1014.31
2019-06-08T06:21:12.586Z,1014.35
2019-06-08T06:22:12.115Z,1014.27
2019-06-08T06:23:12.121Z,1014.22
2019-06-08T06:24:12.104Z,1014.24
2019-06-08T06:25:12.102Z,1014.26
2019-06-08T06:26:12.071Z,1014.23
2019-06-08T06:27:12.063Z,1014.25
2019-06-08T06:28:12.068Z,1014.28
2019-06-08T06:29:12.046Z,1014.32
2019-06-08T06:30:12.047Z,1014.43
2019-06-08T06:31:12.012Z,1014.45
2019-06-08T06:32:12.011Z,1014.53
2019-06-08T06:33:12.012Z,1014.50
2019-06-08T06:34:11.985Z,1014.43
2019-06-08T06:35:11.982Z,1014.43
2019-06-08T06:36:11.968Z,1014.46
2019-06-08T06:37:11.951Z,1014.44
2019-06-08T06:38:11.953Z,1014.33
2019-06-08T06:39:11.926Z,1014.42
2019-06-08T06:40:11.914Z,1014.42
2019-06-08T06:41:11.918Z,1014.46
2019-06-08T06:42:11.890Z,1014.57
2019-06-08T06:43:11.897Z,1014.56
2019-06-08T06:44:11.872Z,1014.57
2019-06-08T06:45:11.860Z,1014.53
2019-06-08T06:46:11.848Z,1014.57
2019-06-08T06:47:11.835Z,1014.54
2019-06-08T06:48:11.839Z,1014.50
2019-06-08T06:49:11.816Z,1014.51
2019-06-08T06:50:11.802Z,1014.44
2019-06-08T06:51:25.319Z,1014.40
2019-06-08T06:52:12.780Z,1014.50
2019-06-08T06:53:11.785Z,1014.55
2019-06-08T06:54:11.762Z,1014.63
2019-06-08T06:55:11.750Z,1014.66
2019-06-08T06:56:11.736Z,1014.63
2019-06-08T06:57:11.729Z,1014.67
2019-06-08T06:58:11.734Z,1014.67
2019-06-08T06:59:11.706Z,1014.68
2019-06-08T07:00:11.704Z,1014.63
2019-06-08T07:01:11.681Z,1014.64
2019-06-08T07:02:11.668Z,1014.77
2019-06-08T07:03:11.678Z,1014.86
2019-06-08T07:04:11.646Z,1014.91
2019-06-08T07:05:11.634Z,1014.92
2019-06-08T07:06:11.624Z,1014.96
2019-06-08T07:07:11.618Z,1015.04
2019-06-08T07:08:11.617Z,1015.07
2019-06-08T07:09:11.643Z,1015.10
2019-06-08T07:10:11.584Z,1015.11
2019-06-08T07:11:11.577Z,1015.12
2019-06-08T07:12:11.556Z,1015.14
2019-06-08T07:13:11.566Z,1015.17
2019-06-08T07:14:11.536Z,1015.17
2019-06-08T07:15:11.543Z,1015.13
2019-06-08T07:16:18.347Z,1015.13
2019-06-08T07:17:12.501Z,1015.13
2019-06-08T07:18:11.505Z,1015.15
2019-06-08T07:19:11.491Z,1015.15
2019-06-08T07:20:11.473Z,1015.08
2019-06-08T07:21:11.467Z,1015.16
2019-06-08T07:22:11.448Z,1015.23
2019-06-08T07:23:11.460Z,1015.13
2019-06-08T07:24:11.428Z,1015.12
2019-06-08T07:25:11.417Z,1015.13
2019-06-08T07:26:11.434Z,1015.18
2019-06-08T07:27:11.396Z,1015.22
2019-06-08T07:28:11.403Z,1015.18
2019-06-08T07:29:11.507Z,1015.17
2019-06-08T07:30:11.390Z,1015.21
2019-06-08T07:31:11.357Z,1015.24
2019-06-08T07:32:11.345Z,1015.26
2019-06-08T07:33:11.353Z,1015.25
2019-06-08T07:34:11.323Z,1015.22
2019-06-08T07:35:11.309Z,1015.22
2019-06-08T07:36:11.298Z,1015.22
2019-06-08T07:37:11.292Z,1015.34
2019-06-08T07:38:11.293Z,1015.31
2019-06-08T07:39:11.265Z,1015.27
2019-06-08T07:40:11.249Z,1015.35
2019-06-08T07:41:11.252Z,1015.41
2019-06-08T07:42:11.235Z,1015.47
2019-06-08T07:43:11.231Z,1015.53
2019-06-08T07:44:11.209Z,1015.60
2019-06-08T07:45:11.201Z,1015.66
2019-06-08T07:46:11.195Z,1015.79
2019-06-08T07:47:11.180Z,1015.67
2019-06-08T07:48:11.185Z,1015.72
2019-06-08T07:49:11.159Z,1015.68
2019-06-08T07:50:11.154Z,1015.75
2019-06-08T07:51:11.133Z,1015.73
2019-06-08T07:52:11.205Z,1015.72
2019-06-08T07:53:11.120Z,1015.71
2019-06-08T07:54:11.101Z,1015.71
2019-06-08T07:55:11.093Z,1015.68
2019-06-08T07:56:11.078Z,1015.60
2019-06-08T07:57:11.075Z,1015.65
2019-06-08T07:58:11.079Z,1015.57
2019-06-08T07:59:11.041Z,1015.59
2019-06-08T08:00:11.077Z,1015.50
2019-06-08T08:01:11.036Z,1015.59
2019-06-08T08:02:11.014Z,1015.58
2019-06-08T08:03:10.998Z,1015.64
2019-06-08T08:04:11.005Z,1015.70
2019-06-08T08:05:10.982Z,1015.77
2019-06-08T08:06:10.993Z,1015.77
2019-06-08T08:07:10.959Z,1015.80
2019-06-08T08:08:10.952Z,1015.83
2019-06-08T08:09:10.966Z,1015.92
2019-06-08T08:10:10.937Z,1015.92
2019-06-08T08:11:10.926Z,1015.91
2019-06-08T08:12:12.243Z,1015.95
2019-06-08T08:13:10.892Z,1015.99
2019-06-08T08:14:10.905Z,1016.10
2019-06-08T08:15:10.873Z,1016.05
2019-06-08T08:16:10.859Z,1016.11
2019-06-08T08:17:10.853Z,1016.10
2019-06-08T08:18:10.882Z,1016.10
2019-06-08T08:19:10.834Z,1016.10
2019-06-08T08:20:10.830Z,1015.97
2019-06-08T08:21:21.259Z,1016.14
2019-06-08T08:22:22.077Z,1016.18
2019-06-08T08:23:11.780Z,1016.13
2019-06-08T08:24:10.772Z,1016.14
2019-06-08T08:25:10.782Z,1016.05
2019-06-08T08:26:10.752Z,1016.03
2019-06-08T08:27:10.734Z,1016.03
2019-06-08T08:28:10.728Z,1015.96
2019-06-08T08:29:10.717Z,1016.01
2019-06-08T08:30:10.725Z,1015.97
2019-06-08T08:31:11.449Z,1015.95
2019-06-08T08:32:10.689Z,1015.92
2019-06-08T08:33:10.672Z,1015.97
2019-06-08T08:34:10.664Z,1016.00
2019-06-08T08:35:10.688Z,1015.95
2019-06-08T08:36:10.644Z,1015.91
2019-06-08T08:37:10.625Z,1015.88
2019-06-08T08:38:10.615Z,1015.87
2019-06-08T08:39:10.604Z,1015.87
2019-06-08T08:40:10.593Z,1015.83
2019-06-08T08:41:10.809Z,1015.97
2019-06-08T08:42:10.568Z,1015.94
2019-06-08T08:43:10.565Z,1016.03
2019-06-08T08:44:10.557Z,1016.09
2019-06-08T08:45:10.538Z,1016.03
2019-06-08T08:46:10.535Z,1015.91
2019-06-08T08:47:10.519Z,1015.90
2019-06-08T08:48:24.595Z,1015.85
2019-06-08T08:49:13.050Z,1015.80
2019-06-08T08:50:10.482Z,1015.70
2019-06-08T08:51:10.497Z,1015.79
2019-06-08T08:52:11.651Z,1015.69
2019-06-08T08:53:10.454Z,1015.71
2019-06-08T08:54:10.447Z,1015.59
2019-06-08T08:55:10.443Z,1015.58
2019-06-08T08:56:10.437Z,1015.56
2019-06-08T08:57:10.423Z,1015.66
2019-06-08T08:58:10.402Z,1015.57
2019-06-08T08:59:10.786Z,1015.61
2019-06-08T09:00:10.379Z,1015.54
2019-06-08T09:01:10.362Z,1015.51
2019-06-08T09:02:11.502Z,1015.46
2019-06-08T09:03:25.077Z,1015.40
2019-06-08T09:04:11.331Z,1015.27
2019-06-08T09:05:10.319Z,1015.17
2019-06-08T09:06:10.311Z,1015.09
2019-06-08T09:07:10.857Z,1015.20
2019-06-08T09:08:10.289Z,1015.15
2019-06-08T09:09:10.272Z,1015.27
2019-06-08T09:10:11.429Z,1015.44
2019-06-08T09:11:10.249Z,1015.63
2019-06-08T09:12:10.253Z,1015.73
2019-06-08T09:13:12.038Z,1015.86
2019-06-08T09:14:14.098Z,1015.96
2019-06-08T09:15:10.205Z,1016.07
2019-06-08T09:16:10.207Z,1016.10
2019-06-08T09:17:10.201Z,1016.17
2019-06-08T09:18:10.185Z,1016.16
2019-06-08T09:19:10.155Z,1016.28
2019-06-08T09:20:15.356Z,1016.35
2019-06-08T09:21:11.132Z,1016.33
2019-06-08T09:22:10.160Z,1016.39
2019-06-08T09:23:16.052Z,1016.35
2019-06-08T09:24:11.212Z,1016.26
2019-06-08T09:25:13.353Z,1016.19
2019-06-08T09:26:13.127Z,1016.13
2019-06-08T09:27:10.074Z,1016.21
2019-06-08T09:28:10.077Z,1016.15
2019-06-08T09:29:11.246Z,1016.22
2019-06-08T09:30:10.037Z,1016.23
2019-06-08T09:31:12.832Z,1016.29
2019-06-08T09:32:10.024Z,1016.31
2019-06-08T09:33:10.023Z,1016.30
2019-06-08T09:34:15.037Z,1016.32
2019-06-08T09:35:10.977Z,1016.33
2019-06-08T09:36:09.979Z,1016.50
2019-06-08T09:37:09.976Z,1016.45
2019-06-08T09:38:10.979Z,1016.52
2019-06-08T09:39:12.946Z,1016.52
2019-06-08T09:40:09.942Z,1016.56
2019-06-08T09:41:09.910Z,1016.53
2019-06-08T09:42:09.898Z,1016.45
2019-06-08T09:43:13.030Z,1016.33
2019-06-08T09:44:11.581Z,1016.39
2019-06-08T09:45:09.881Z,1016.22
2019-06-08T09:46:09.860Z,1016.27
2019-06-08T09:47:12.517Z,1016.27
2019-06-08T09:48:09.854Z,1016.24
2019-06-08T09:49:11.850Z,1016.38
2019-06-08T09:50:09.820Z,1016.45
2019-06-08T09:51:09.831Z,1016.47
2019-06-08T09:52:09.798Z,1016.51
2019-06-08T09:53:23.694Z,1016.61
2019-06-08T09:54:12.645Z,1016.60
2019-06-08T09:55:09.934Z,1016.66
2019-06-08T09:56:10.145Z,1016.59
2019-06-08T09:57:09.810Z,1016.51
2019-06-08T09:58:11.816Z,1016.28
2019-06-08T09:59:11.036Z,1016.13
2019-06-08T10:00:18.020Z,1016.12
2019-06-08T10:01:12.377Z,1016.20
2019-06-08T10:02:12.814Z,1016.40
2019-06-08T10:03:09.783Z,1016.60
2019-06-08T10:04:09.730Z,1016.75
2019-06-08T10:05:09.642Z,1016.72
2019-06-08T10:06:12.279Z,1016.79
2019-06-08T10:07:09.622Z,1016.79
2019-06-08T10:08:09.785Z,1016.79
2019-06-08T10:09:09.600Z,1016.73
2019-06-08T10:10:09.901Z,1016.87
2019-06-08T10:11:09.857Z,1016.77
2019-06-08T10:12:10.018Z,1016.84
2019-06-08T10:13:10.018Z,1016.86
2019-06-08T10:14:12.391Z,1016.86
2019-06-08T10:15:09.535Z,1016.75
2019-06-08T10:16:10.486Z,1016.81
2019-06-08T10:17:09.535Z,1016.83
2019-06-08T10:18:09.545Z,1016.82
2019-06-08T10:19:10.390Z,1016.76
2019-06-08T10:20:10.150Z,1016.87
2019-06-08T10:21:09.745Z,1016.79
2019-06-08T10:22:09.462Z,1016.73
2019-06-08T10:23:27.090Z,1016.63
2019-06-08T10:24:10.474Z,1016.55
2019-06-08T10:25:11.288Z,1016.55
2019-06-08T10:26:09.411Z,1016.55
2019-06-08T10:27:11.719Z,1016.64
2019-06-08T10:28:13.668Z,1016.61
2019-06-08T10:29:10.752Z,1016.65
2019-06-08T10:30:10.194Z,1016.64
2019-06-08T10:31:09.355Z,1016.74
2019-06-08T10:32:09.574Z,1016.69
2019-06-08T10:33:10.028Z,1016.70
2019-06-08T10:34:11.197Z,1016.65
2019-06-08T10:35:10.495Z,1016.56
2019-06-08T10:36:12.184Z,1016.54
2019-06-08T10:37:12.881Z,1016.49
2019-06-08T10:38:12.028Z,1016.46
2019-06-08T10:39:11.591Z,1016.37
2019-06-08T10:40:09.259Z,1016.39
2019-06-08T10:41:15.714Z,1016.39
2019-06-08T10:42:11.491Z,1016.54
2019-06-08T10:43:09.959Z,1016.54
2019-06-08T10:44:13.820Z,1016.52
2019-06-08T10:45:14.271Z,1016.47
2019-06-08T10:46:16.353Z,1016.40
2019-06-08T10:47:11.847Z,1016.50
2019-06-08T10:48:09.699Z,1016.53
2019-06-08T10:49:13.913Z,1016.53
2019-06-08T10:50:14.716Z,1016.56
2019-06-08T10:51:12.803Z,1016.56
2019-06-08T10:52:10.647Z,1016.48
2019-06-08T10:53:11.889Z,1016.62
2019-06-08T10:54:11.078Z,1016.61
2019-06-08T10:55:10.492Z,1016.61
2019-06-08T10:56:11.806Z,1016.67
2019-06-08T10:57:09.944Z,1016.68
2019-06-08T10:58:11.255Z,1016.79
2019-06-08T10:59:11.990Z,1016.83
2019-06-08T11:00:17.977Z,1016.72
2019-06-08T11:01:12.465Z,1016.81
2019-06-08T11:02:13.464Z,1016.82
2019-06-08T11:03:11.733Z,1016.76
2019-06-08T11:04:09.393Z,1016.76
2019-06-08T11:05:12.575Z,1016.70
2019-06-08T11:06:12.961Z,1016.66
2019-06-08T11:07:13.793Z,1016.61
2019-06-08T11:08:14.167Z,1016.73
2019-06-08T11:09:14.412Z,1016.79
2019-06-08T11:10:12.077Z,1016.63
2019-06-08T11:11:11.737Z,1016.67
2019-06-08T11:12:14.617Z,1016.72
2019-06-08T11:13:14.977Z,1016.67
2019-06-08T11:14:12.528Z,1016.72
2019-06-08T11:15:11.588Z,1016.70
2019-06-08T11:16:12.754Z,1016.70
2019-06-08T11:17:10.999Z,1016.67
2019-06-08T11:18:11.835Z,1016.84
2019-06-08T11:19:13.096Z,1016.69
2019-06-08T11:20:11.859Z,1016.65
2019-06-08T11:21:12.543Z,1016.58
2019-06-08T11:22:13.859Z,1016.58
2019-06-08T11:23:12.262Z,1016.50
2019-06-08T11:24:23.290Z,1016.51
2019-06-08T11:25:15.921Z,1016.51
2019-06-08T11:26:19.385Z,1016.48
2019-06-08T11:27:12.673Z,1016.53
2019-06-08T11:28:14.862Z,1016.40
2019-06-08T11:29:13.572Z,1016.42
2019-06-08T11:30:14.193Z,1016.37
2019-06-08T11:31:15.524Z,1016.41
2019-06-08T11:32:12.320Z,1016.34
2019-06-08T11:33:11.213Z,1016.49
2019-06-08T11:34:10.210Z,1016.51
2019-06-08T11:35:11.069Z,1016.47
2019-06-08T11:36:13.773Z,1016.55
2019-06-08T11:37:13.244Z,1016.49
2019-06-08T11:38:11.496Z,1016.50
2019-06-08T11:39:10.950Z,1016.44
2019-06-08T11:40:10.999Z,1016.46
2019-06-08T11:41:12.190Z,1016.47
2019-06-08T11:42:12.320Z,1016.48
2019-06-08T11:43:08.684Z,1016.48
2019-06-08T11:44:12.397Z,1016.40
2019-06-08T11:45:12.553Z,1016.38
2019-06-08T11:46:08.552Z,1016.43
2019-06-08T11:47:12.229Z,1016.42
2019-06-08T11:48:08.792Z,1016.47
2019-06-08T11:49:13.484Z,1016.47
2019-06-08T11:50:12.951Z,1016.45
2019-06-08T11:51:10.620Z,1016.41
2019-06-08T11:52:09.066Z,1016.44
2019-06-08T11:53:13.503Z,1016.43
2019-06-08T11:54:27.293Z,1016.47
2019-06-08T11:55:12.592Z,1016.48
2019-06-08T11:56:10.026Z,1016.35
2019-06-08T11:57:11.119Z,1016.42
2019-06-08T11:58:11.838Z,1016.57
2019-06-08T11:59:13.783Z,1016.62
2019-06-08T12:00:18.037Z,1016.63
2019-06-08T12:01:13.159Z,1016.61
2019-06-08T12:02:13.526Z,1016.64
2019-06-08T12:03:08.907Z,1016.56
2019-06-08T12:04:08.345Z,1016.63
2019-06-08T12:05:11.128Z,1016.69